Etusivu
METAR-TAF:

METAR-TAF

Lentoasemat :

South Bend Regional Airport

South Bend, Indiana, Yhdysvallat

Leveyspiiri: 41-42-32N, Pituuspiiri: 086-19-07W, korkeus merenpinnasta: 244 m

Tämänhetkinen sää

Tämä raportti tehtiin 23 minuuttia sitten, kello 09.54 UTC
Tuuli 14 kn pohjoisesta puuskistuen 21 kn:hen
Lämpötila 4°C
Kosteus 70%
Ilmanpaine 1006 hPa
Näkyvyys: 16.1 km
selkeää

METAR: KSBN 200954Z 01014G21KT 10SM CLR 04/M01 A2971 RMK AO2 PK WND 01026/0909 SLP063 T00391011

Aika: 06:17 (10:17 UTC)

Sääennuste

Tämä raportti tehtiin 4 tuntia ja 55 minuuttia sitten, kello 05.22 UTC
Ennuste voimassa 20. päivästä klo 06 UTC - 21. päivään klo 06 UTC
Tuuli 15 kn pohjoisesta/koillisesta puuskistuen 24 kn:hen
Näkyvyys: 10 km
Hajanaisia pilviä 3000 ft:n korkeudessa
From 21. päivästä klo 0000 UTC
Tuuli 5 kn pohjoisesta
Näkyvyys: 10 km
Hajanaisia pilviä 25000 ft:n korkeudessa

TAF: KSBN 200522Z 2006/2106 02015G24KT P6SM SCT030 FM210000 01005KT P6SM SCT250

Säähavainnot ja -ennusteet yli 4000 lentoasemalta (METAR- ja TAF-raportit).

Käytössä olevat sääasemat on merkitty karttaan keltaisilla ja punaisilla pisteillä.

Aseta hiiri pisteen päälle nähdäksesi sääaseman nimen.

Klikkaa sitten nähdäksesi säähavainnot ja -ennusteet.

Kartan vaihtaminen: klikkaa mustalla rastilla varustettuja vihreitä pisteitä, niin voit zoomata sisään; viivalla varustettua vihreää pistettä, niin voit zoomata ulos tai vihreitä nuolia, niin pääset viereisille kartoille.


METAR-TAF: